createdAt,value
2019-04-23T00:02:46.136Z,9.60
2019-04-23T00:04:54.172Z,12.67
2019-04-23T00:07:43.140Z,12.90
2019-04-23T00:10:12.722Z,10.17
2019-04-23T00:12:49.633Z,15.80
2019-04-23T00:15:08.753Z,18.60
2019-04-23T00:20:10.091Z,16.00
2019-04-23T00:23:02.441Z,18.43
2019-04-23T00:28:14.177Z,15.07
2019-04-23T00:30:44.078Z,15.30
2019-04-23T00:33:12.593Z,14.10
2019-04-23T00:35:43.424Z,13.30
2019-04-23T00:38:18.216Z,14.80
2019-04-23T00:40:47.287Z,12.27
2019-04-23T00:43:15.449Z,16.60
2019-04-23T00:48:31.146Z,9.30
2019-04-23T00:50:49.179Z,14.30
2019-04-23T00:53:23.416Z,16.40
2019-04-23T00:56:01.985Z,14.77
2019-04-23T00:58:29.095Z,13.77
2019-04-23T01:00:52.835Z,16.37
2019-04-23T01:03:21.422Z,14.43
2019-04-23T01:05:52.689Z,16.67
2019-04-23T01:11:02.734Z,11.23
2019-04-23T01:13:39.593Z,15.60
2019-04-23T01:19:04.170Z,19.90
2019-04-23T01:21:09.843Z,18.40
2019-04-23T01:24:02.739Z,13.83
2019-04-23T01:27:01.743Z,16.13
2019-04-23T01:29:30.475Z,14.27
2019-04-23T01:31:57.442Z,17.43
2019-04-23T01:34:31.425Z,16.33
2019-04-23T01:36:57.481Z,19.50
2019-04-23T01:39:28.031Z,17.23
2019-04-23T01:42:20.173Z,15.90
2019-04-23T01:44:36.728Z,14.20
2019-04-23T01:47:07.781Z,14.63
2019-04-23T01:49:48.407Z,17.83
2019-04-23T01:52:08.376Z,15.27
2019-04-23T01:54:39.435Z,15.67
2019-04-23T01:57:12.961Z,14.03
2019-04-23T01:59:49.462Z,15.07
2019-04-23T02:02:12.137Z,14.47
2019-04-23T02:04:46.045Z,12.23
2019-04-23T02:07:22.086Z,13.90
2019-04-23T02:09:50.976Z,18.37
2019-04-23T02:12:18.168Z,16.63
2019-04-23T02:14:51.672Z,15.53
2019-04-23T02:17:21.930Z,14.40
2019-04-23T02:19:51.742Z,13.33
2019-04-23T02:22:52.668Z,15.37
2019-04-23T02:25:34.901Z,15.00
2019-04-23T02:27:59.915Z,12.40
2019-04-23T02:33:10.476Z,19.20
2019-04-23T02:38:15.790Z,20.97
2019-04-23T02:40:49.514Z,15.37
2019-04-23T02:50:39.772Z,16.77
2019-04-23T02:53:20.782Z,17.57
2019-04-23T02:55:50.448Z,20.27
2019-04-23T02:58:18.559Z,17.23
2019-04-23T03:03:25.182Z,16.80
2019-04-23T03:05:54.912Z,19.13
2019-04-23T03:11:01.342Z,13.77
2019-04-23T03:19:02.621Z,21.07
2019-04-23T03:21:54.356Z,17.93
2019-04-23T03:24:39.021Z,13.63
2019-04-23T03:29:40.506Z,20.03
2019-04-23T03:37:20.124Z,14.60
2019-04-23T03:42:22.278Z,24.03
2019-04-23T03:44:47.793Z,17.33
2019-04-23T03:47:18.465Z,17.00
2019-04-23T03:49:48.134Z,20.67
2019-04-23T03:52:27.835Z,20.07
2019-04-23T03:54:46.211Z,20.90
2019-04-23T04:04:45.293Z,20.47
2019-04-23T04:12:29.284Z,25.50
2019-04-23T04:17:26.728Z,21.30
2019-04-23T04:22:39.928Z,28.17
2019-04-23T04:30:19.218Z,24.57
2019-04-23T04:32:36.744Z,24.83
2019-04-23T04:42:46.174Z,28.17
2019-04-23T04:45:22.815Z,32.20
2019-04-23T04:47:42.736Z,28.97
2019-04-23T04:50:08.232Z,33.10
2019-04-23T04:52:49.025Z,32.03
2019-04-23T04:55:21.487Z,26.20
2019-04-23T04:58:00.517Z,23.07
2019-04-23T05:00:29.068Z,26.03
2019-04-23T05:07:48.159Z,21.37
2019-04-23T05:10:32.491Z,18.37
2019-04-23T05:13:15.663Z,22.07
2019-04-23T05:15:16.899Z,19.60
2019-04-23T05:18:23.649Z,24.07
2019-04-23T05:20:53.248Z,19.87
2019-04-23T05:23:28.137Z,27.73
2019-04-23T05:25:52.883Z,18.83
2019-04-23T05:28:36.199Z,22.20
2019-04-23T05:33:23.506Z,19.70
2019-04-23T05:38:46.021Z,31.07
2019-04-23T05:41:10.030Z,24.13
2019-04-23T05:43:35.799Z,23.83
2019-04-23T05:46:04.724Z,25.03
2019-04-23T05:48:33.357Z,23.73
2019-04-23T05:51:10.997Z,22.83
2019-04-23T05:53:39.767Z,24.77
2019-04-23T05:56:10.165Z,24.47
2019-04-23T06:06:44.551Z,24.67
2019-04-23T06:11:45.055Z,15.53
2019-04-23T06:14:29.108Z,20.83
2019-04-23T06:21:44.271Z,30.20
2019-04-23T06:24:16.308Z,22.97
2019-04-23T06:31:47.538Z,19.90
2019-04-23T06:34:17.144Z,16.40
2019-04-23T06:36:46.309Z,15.30
2019-04-23T06:39:24.288Z,20.00
2019-04-23T06:41:50.118Z,21.40
2019-04-23T06:44:28.461Z,19.53
2019-04-23T06:46:56.855Z,20.17
2019-04-23T06:49:32.877Z,22.77
2019-04-23T06:52:10.484Z,15.13
2019-04-23T06:54:38.796Z,18.97
2019-04-23T06:57:09.062Z,17.17
2019-04-23T06:59:33.587Z,20.37
2019-04-23T07:02:10.010Z,18.60
2019-04-23T07:09:34.925Z,28.70
2019-04-23T07:12:08.834Z,22.10
2019-04-23T07:14:44.092Z,16.07
2019-04-23T07:17:09.219Z,15.13
2019-04-23T07:19:42.400Z,15.63
2019-04-23T07:25:00.126Z,12.83
2019-04-23T07:27:13.206Z,13.53
2019-04-23T07:32:15.447Z,14.17
2019-04-23T07:34:59.208Z,17.13
2019-04-23T07:37:17.614Z,15.80
2019-04-23T07:40:21.621Z,16.23
2019-04-23T07:43:03.547Z,14.30
2019-04-23T07:45:24.016Z,19.10
2019-04-23T07:48:43.737Z,15.07
2019-04-23T07:51:00.573Z,11.10
2019-04-23T07:53:37.963Z,13.93
2019-04-23T07:58:28.629Z,13.50
2019-04-23T08:01:04.803Z,13.17
2019-04-23T08:03:40.462Z,12.67
2019-04-23T08:06:08.827Z,25.57
2019-04-23T08:08:39.867Z,13.23
2019-04-23T08:13:47.329Z,13.60
2019-04-23T08:16:23.280Z,15.27
2019-04-23T08:18:49.448Z,16.27
2019-04-23T08:21:15.764Z,14.20
2019-04-23T08:29:25.123Z,12.00
2019-04-23T08:32:16.421Z,14.33
2019-04-23T08:34:37.988Z,16.30
2019-04-23T08:39:38.553Z,10.93
2019-04-23T08:42:27.327Z,8.70
2019-04-23T08:45:10.476Z,9.50
2019-04-23T08:47:42.215Z,9.63
2019-04-23T08:50:04.333Z,12.70
2019-04-23T08:52:38.384Z,14.28
2019-04-23T08:55:13.633Z,13.57
2019-04-23T08:57:38.016Z,11.97
2019-04-23T09:00:14.164Z,10.93
2019-04-23T09:02:47.757Z,13.77
2019-04-23T09:05:26.243Z,13.80
2019-04-23T09:07:57.141Z,14.87
2019-04-23T09:12:49.155Z,9.80
2019-04-23T09:15:33.040Z,13.72
2019-04-23T09:17:56.225Z,11.50
2019-04-23T09:20:29.454Z,11.77
2019-04-23T09:22:50.358Z,8.60
2019-04-23T09:25:34.648Z,9.23
2019-04-23T09:27:59.468Z,11.03
2019-04-23T09:30:32.329Z,9.77
2019-04-23T09:33:28.758Z,12.13
2019-04-23T09:36:16.829Z,10.07
2019-04-23T09:38:55.784Z,12.07
2019-04-23T09:41:36.201Z,9.13
2019-04-23T09:44:56.279Z,10.17
2019-04-23T09:49:47.309Z,9.23
2019-04-23T09:52:23.501Z,10.70
2019-04-23T09:55:01.696Z,10.70
2019-04-23T09:57:17.140Z,9.53
2019-04-23T09:59:49.894Z,10.70
2019-04-23T10:02:14.718Z,9.93
2019-04-23T10:04:38.000Z,14.47
2019-04-23T10:07:12.627Z,9.90
2019-04-23T10:09:30.088Z,15.37
2019-04-23T10:12:01.001Z,9.70
2019-04-23T10:14:30.546Z,9.60
2019-04-23T10:17:00.148Z,11.60
2019-04-23T10:19:30.762Z,11.33
2019-04-23T10:22:01.677Z,14.13
2019-04-23T10:24:31.099Z,11.60
2019-04-23T10:27:01.940Z,11.63
2019-04-23T10:29:38.226Z,10.90
2019-04-23T10:32:09.350Z,13.37
2019-04-23T10:34:57.874Z,9.13
2019-04-23T10:37:11.303Z,8.27
2019-04-23T10:39:44.709Z,7.53
2019-04-23T10:42:14.078Z,9.10
2019-04-23T10:45:10.843Z,8.30
2019-04-23T10:48:31.723Z,9.83
2019-04-23T10:51:18.600Z,10.40
2019-04-23T10:54:02.993Z,8.37
2019-04-23T10:59:03.238Z,11.90
2019-04-23T11:01:35.816Z,16.10
2019-04-23T11:04:21.470Z,13.90
2019-04-23T11:06:45.455Z,10.30
2019-04-23T11:09:27.541Z,13.33
2019-04-23T11:12:02.178Z,11.00
2019-04-23T11:14:36.993Z,12.13
2019-04-23T11:17:04.454Z,13.87
2019-04-23T11:19:51.587Z,9.63
2019-04-23T11:22:28.104Z,12.00
2019-04-23T11:24:41.524Z,11.37
2019-04-23T11:27:20.361Z,12.53
2019-04-23T11:30:00.247Z,15.50
2019-04-23T11:32:32.539Z,13.37
2019-04-23T11:37:25.409Z,11.97
2019-04-23T11:39:44.594Z,11.00
2019-04-23T11:44:49.895Z,12.87
2019-04-23T11:48:04.443Z,11.77
2019-04-23T11:49:52.474Z,13.17
2019-04-23T11:52:30.731Z,15.07
2019-04-23T11:54:53.502Z,17.83
2019-04-23T11:59:53.085Z,16.13
2019-04-23T12:02:38.620Z,14.30
2019-04-23T12:05:26.611Z,12.93
2019-04-23T12:08:18.147Z,14.90
2019-04-23T12:11:24.027Z,20.17
2019-04-23T12:13:28.411Z,13.50
2019-04-23T12:15:53.990Z,15.87
2019-04-23T12:18:34.849Z,18.77
2019-04-23T12:21:21.572Z,18.53
2019-04-23T12:26:33.849Z,15.77
2019-04-23T12:28:57.738Z,14.67
2019-04-23T12:31:27.669Z,18.77
2019-04-23T12:33:57.343Z,14.10
2019-04-23T12:36:36.968Z,13.47
2019-04-23T12:39:04.407Z,17.90
2019-04-23T12:41:35.869Z,11.77
2019-04-23T12:44:09.703Z,18.33
2019-04-23T12:46:45.777Z,19.73
2019-04-23T12:49:28.366Z,13.20
2019-04-23T12:51:50.262Z,14.33
2019-04-23T12:54:20.602Z,12.83
2019-04-23T12:56:48.089Z,16.73
2019-04-23T12:59:17.153Z,21.60
2019-04-23T13:01:51.369Z,11.37
2019-04-23T13:04:18.660Z,12.50
2019-04-23T13:06:44.165Z,15.33
2019-04-23T13:09:35.046Z,13.77
2019-04-23T13:11:52.883Z,12.13
2019-04-23T13:14:29.484Z,13.70
2019-04-23T13:17:01.875Z,41.57
2019-04-23T13:19:37.473Z,21.63
2019-04-23T13:24:46.116Z,15.50
2019-04-23T13:27:23.982Z,13.90
2019-04-23T13:29:49.991Z,18.03
2019-04-23T13:32:23.587Z,15.70
2019-04-23T13:35:04.693Z,14.13
2019-04-23T13:37:31.705Z,14.27
2019-04-23T13:39:51.909Z,17.20
2019-04-23T13:42:33.433Z,16.37
2019-04-23T13:45:01.007Z,17.07
2019-04-23T13:50:00.304Z,16.97
2019-04-23T13:52:58.703Z,17.40
2019-04-23T13:58:04.997Z,17.53
2019-04-23T14:00:06.499Z,15.27
2019-04-23T14:02:37.184Z,21.80
2019-04-23T14:05:21.693Z,12.60
2019-04-23T14:07:55.610Z,18.07
2019-04-23T14:10:32.243Z,14.50
2019-04-23T14:13:08.811Z,15.93
2019-04-23T14:15:36.022Z,15.43
2019-04-23T14:18:22.666Z,19.83
2019-04-23T14:20:27.679Z,22.77
2019-04-23T14:23:07.847Z,21.00
2019-04-23T14:25:28.168Z,26.67
2019-04-23T14:28:13.968Z,18.83
2019-04-23T14:30:38.532Z,20.60
2019-04-23T14:33:15.870Z,20.47
2019-04-23T14:35:40.281Z,18.27
2019-04-23T14:43:14.529Z,23.87
2019-04-23T14:48:27.898Z,24.30
2019-04-23T14:50:48.771Z,21.07
2019-04-23T14:53:24.271Z,19.10
2019-04-23T14:58:31.288Z,23.30
2019-04-23T15:01:16.021Z,18.97
2019-04-23T15:03:44.947Z,20.90
2019-04-23T15:11:21.311Z,23.07
2019-04-23T15:13:49.453Z,24.03
2019-04-23T15:19:31.555Z,19.93
2019-04-23T15:28:49.076Z,19.80
2019-04-23T15:34:14.009Z,17.13
2019-04-23T15:39:24.524Z,22.77
2019-04-23T15:44:13.591Z,19.10
2019-04-23T15:46:51.279Z,20.90
2019-04-23T15:51:56.625Z,24.73
2019-04-23T15:54:29.872Z,25.10
2019-04-23T15:56:55.060Z,34.97
2019-04-23T15:59:34.647Z,45.70
2019-04-23T16:01:41.360Z,24.50
2019-04-23T16:03:59.119Z,28.53
2019-04-23T16:06:32.314Z,28.37
2019-04-23T16:09:16.247Z,22.43
2019-04-23T16:11:51.803Z,25.27
2019-04-23T16:14:32.969Z,25.77
2019-04-23T16:20:06.134Z,32.87
2019-04-23T16:22:18.952Z,25.83
2019-04-23T16:25:03.527Z,27.03
2019-04-23T16:27:14.930Z,22.40
2019-04-23T16:35:28.940Z,25.77
2019-04-23T16:38:01.627Z,30.30
2019-04-23T16:42:59.799Z,24.77
2019-04-23T16:45:27.040Z,29.47
2019-04-23T16:47:59.658Z,24.13
2019-04-23T16:50:31.019Z,23.00
2019-04-23T16:53:02.382Z,30.37
2019-04-23T16:55:34.601Z,28.73
2019-04-23T16:58:03.595Z,22.33
2019-04-23T17:00:34.795Z,27.77
2019-04-23T17:03:11.176Z,29.10
2019-04-23T17:05:39.309Z,31.97
2019-04-23T17:08:31.272Z,30.27
2019-04-23T17:10:42.821Z,29.70
2019-04-23T17:15:53.387Z,34.60
2019-04-23T17:18:22.561Z,29.17
2019-04-23T17:20:47.124Z,26.60
2019-04-23T17:23:25.554Z,28.47
2019-04-23T17:25:53.772Z,30.13
2019-04-23T17:31:05.248Z,25.70
2019-04-23T17:33:39.498Z,28.07
2019-04-23T17:39:05.559Z,27.03
2019-04-23T17:44:10.870Z,25.33
2019-04-23T17:46:37.573Z,25.07
2019-04-23T17:49:04.337Z,24.60
2019-04-23T17:51:31.261Z,25.43
2019-04-23T17:54:10.753Z,29.53
2019-04-23T17:56:55.818Z,25.93
2019-04-23T17:59:14.056Z,26.47
2019-04-23T18:01:47.546Z,23.80
2019-04-23T18:04:23.949Z,26.90
2019-04-23T18:06:50.867Z,27.03
2019-04-23T18:11:57.668Z,30.23
2019-04-23T18:14:16.490Z,21.17
2019-04-23T18:16:57.431Z,32.50
2019-04-23T18:22:35.489Z,26.53
2019-04-23T18:25:08.497Z,27.13
2019-04-23T18:27:42.536Z,20.53
2019-04-23T18:30:19.124Z,26.60
2019-04-23T18:35:29.917Z,27.13
2019-04-23T18:38:09.376Z,27.10
2019-04-23T18:40:55.214Z,20.87
2019-04-23T18:43:21.096Z,28.53
2019-04-23T18:45:45.130Z,29.93
2019-04-23T18:58:48.586Z,35.53
2019-04-23T19:06:40.858Z,27.27
2019-04-23T19:10:09.996Z,31.20
2019-04-23T19:12:36.021Z,27.00
2019-04-23T19:15:09.407Z,25.47
2019-04-23T19:20:01.124Z,27.60
2019-04-23T19:25:07.573Z,27.23
2019-04-23T19:27:40.426Z,34.93
2019-04-23T19:30:26.423Z,27.97
2019-04-23T19:32:50.767Z,28.37
2019-04-23T19:35:44.280Z,39.67
2019-04-23T19:40:28.347Z,35.30
2019-04-23T19:42:55.766Z,29.50
2019-04-23T19:45:28.350Z,34.57
2019-04-23T19:47:58.586Z,40.27
2019-04-23T19:50:33.001Z,33.07
2019-04-23T19:55:30.306Z,40.70
2019-04-23T19:58:05.063Z,53.00
2019-04-23T20:00:53.460Z,38.00
2019-04-23T20:03:28.180Z,66.13
2019-04-23T20:05:41.425Z,40.33
2019-04-23T20:10:48.192Z,33.83
2019-04-23T20:13:14.031Z,40.20
2019-04-23T20:15:51.160Z,35.10
2019-04-23T20:18:09.061Z,31.97
2019-04-23T20:23:24.802Z,35.43
2019-04-23T20:28:41.360Z,24.40
2019-04-23T20:32:03.175Z,31.37
2019-04-23T20:34:22.630Z,24.63
2019-04-23T20:36:38.496Z,23.53
2019-04-23T20:42:10.787Z,25.43
2019-04-23T20:47:05.747Z,22.97
2019-04-23T20:49:40.159Z,24.07
2019-04-23T20:54:56.524Z,24.47
2019-04-23T20:57:31.520Z,23.03
2019-04-23T21:05:10.070Z,19.90
2019-04-23T21:13:06.856Z,26.43
2019-04-23T21:17:54.647Z,24.57
2019-04-23T21:22:57.205Z,21.23
2019-04-23T21:25:18.849Z,19.23
2019-04-23T21:28:06.364Z,17.43
2019-04-23T21:31:03.435Z,16.10
2019-04-23T21:36:18.842Z,17.77
2019-04-23T21:39:15.100Z,16.40
2019-04-23T21:42:01.916Z,27.00
2019-04-23T21:52:17.564Z,17.67
2019-04-23T21:54:41.214Z,16.63
2019-04-23T21:57:02.369Z,19.87
2019-04-23T21:59:36.857Z,21.70
2019-04-23T22:02:28.761Z,19.43
2019-04-23T22:07:06.949Z,23.90
2019-04-23T22:09:43.773Z,20.23
2019-04-23T22:14:45.380Z,21.00
2019-04-23T22:17:16.874Z,24.73
2019-04-23T22:20:00.641Z,20.23
2019-04-23T22:22:16.940Z,23.97
2019-04-23T22:24:50.010Z,18.13
2019-04-23T22:27:20.184Z,20.13
2019-04-23T22:32:33.977Z,19.67
2019-04-23T22:37:25.378Z,19.37
2019-04-23T22:43:06.167Z,20.93
2019-04-23T22:47:33.555Z,23.33
2019-04-23T22:55:07.948Z,21.17
2019-04-23T22:57:56.450Z,21.70
2019-04-23T23:00:13.378Z,23.00
2019-04-23T23:05:50.653Z,22.80
2019-04-23T23:08:10.901Z,28.87
2019-04-23T23:10:48.354Z,20.43
2019-04-23T23:13:12.032Z,20.33
2019-04-23T23:15:51.042Z,19.97
2019-04-23T23:18:19.848Z,19.63
2019-04-23T23:20:46.397Z,22.87
2019-04-23T23:25:52.033Z,27.40
2019-04-23T23:28:26.165Z,23.77
2019-04-23T23:30:58.169Z,22.67
2019-04-23T23:35:54.143Z,22.97
2019-04-23T23:38:42.166Z,21.50
2019-04-23T23:41:03.628Z,25.57
2019-04-23T23:43:36.628Z,23.63
2019-04-23T23:46:06.947Z,24.90
2019-04-23T23:48:30.814Z,19.27
2019-04-23T23:51:29.085Z,24.07
2019-04-23T23:53:40.061Z,22.27
2019-04-23T23:58:56.868Z,22.43
